Amagi Galaxy — V7VE9 — position and weather

sailwx.info

Track history (hours):
 
Tides and Currents Weather Stations Pressure Air Temp Water Temp Dewpoint Dewpoint Depression Visibility Wind Speed Wind Dir Waves Ship Positions

Amagi Galaxy

Last reported at 2016-Sep-27 00:31 UTC. Time now 2016-Sep-27 01:57 UTC.
Position N 37°48' W 122°21'.

Length 152 m; draft 9.7 m.

Type: Ship. MMSI: 538004105.

Date/timePositionNaut miles runAvg speedWind from/ knotsBaromVisibWave heightAir tempDewpointWater temp
2016-Sep-27 00:31N 37°48' W 122°21'0 0.0
2016-Sep-26 20:31N 37°48' W 122°22'0 0.1
2016-Sep-26 19:31N 37°48' W 122°21'0 0.1
2016-Sep-26 15:31N 37°48' W 122°21'0 0.0
2016-Sep-26 13:31N 37°48' W 122°21'0 0.1
2016-Sep-26 11:31N 37°48' W 122°21'0 0.0
2016-Sep-26 08:31N 37°48' W 122°21'0 0.0
2016-Sep-26 02:31N 37°47' W 122°21'0 0.0
2016-Sep-26 01:31N 37°47' W 122°21'0 0.1
2016-Sep-26 00:31N 37°48' W 122°21'0 0.1
2016-Sep-25 21:31N 37°48' W 122°22'0 0.0
2016-Sep-25 17:28N 37°48' W 122°21'0 0.1
2016-Sep-25 16:31N 37°47' W 122°21'0 0.1
2016-Sep-25 15:33N 37°47' W 122°21'1 0.8
2016-Sep-25 14:33N 37°47' W 122°22'20 9.8
2016-Sep-25 12:33N 37°41' W 122°46'9 8.9
2016-Sep-25 11:33N 37°36' W 122°55'1010.5
2016-Sep-25 10:33N 37°31' W 123°07'1111.2
2016-Sep-25 09:33N 37°35' W 123°20'2210.9
2016-Sep-25 07:33N 37°42' W 123°46'3912.9
2016-Sep-25 04:33N 37°55' W 124°32'5213.0
2016-Sep-25 00:33N 38°13' W 125°34'2613.1
2016-Sep-24 22:33N 38°21' W 126°06'57611.5
2016-Sep-22 20:33N 47°57' W 125°31'79 9.9
2016-Sep-22 12:33N 48°16' W 123°36'66 8.2
2016-Sep-22 04:29N 49°18' W 123°02'0 0.0
2016-Sep-22 03:29N 49°18' W 123°02'0 0.0
2016-Sep-22 00:32N 49°18' W 123°02'0 0.0
2016-Sep-21 23:32N 49°18' W 123°02'0 0.0
2016-Sep-21 22:29N 49°18' W 123°02'0 0.0
2016-Sep-21 19:32N 49°18' W 123°02'0 0.0
2016-Sep-21 16:29N 49°18' W 123°02'0 0.0
2016-Sep-21 09:32N 49°18' W 123°02'0 0.0
2016-Sep-21 08:32N 49°18' W 123°02'0 0.0
2016-Sep-21 05:32N 49°18' W 123°02'5 2.5
2016-Sep-21 03:33N 49°19' W 123°09'1010.1
2016-Sep-21 02:33N 49°12' W 123°19'63 7.0
2016-Sep-20 17:33N 48°15' W 124°00'3010.2
2016-Sep-20 14:33N 48°28' W 124°42'1110.9
2016-Sep-20 13:33N 48°28' W 124°59'28 9.3
2016-Sep-20 10:33N 48°29' W 125°41'18 8.9
2016-Sep-20 08:33N 48°29' W 126°07'1210.9
2016-Sep-20 07:30N 48°29' W 126°25'  
Track history (hours):
 
Tides and Currents Weather Stations Pressure Air Temp Water Temp Dewpoint Dewpoint Depression Visibility Wind Speed Wind Dir Waves Ship Positions

Amagi Galaxy

Last reported at 2016-Sep-27 00:31 UTC. Time now 2016-Sep-27 01:57 UTC.
Position N 37°48' W 122°21'.

Length 152 m; draft 9.7 m.

Type: Ship. MMSI: 538004105.

Date/timePositionNaut miles runAvg speedWind from/ knotsBaromVisibWave heightAir tempDewpointWater temp
2016-Sep-27 00:31N 37°48' W 122°21'0 0.0
2016-Sep-26 20:31N 37°48' W 122°22'0 0.1
2016-Sep-26 19:31N 37°48' W 122°21'0 0.1
2016-Sep-26 15:31N 37°48' W 122°21'0 0.0
2016-Sep-26 13:31N 37°48' W 122°21'0 0.1
2016-Sep-26 11:31N 37°48' W 122°21'0 0.0
2016-Sep-26 08:31N 37°48' W 122°21'0 0.0
2016-Sep-26 02:31N 37°47' W 122°21'0 0.0
2016-Sep-26 01:31N 37°47' W 122°21'0 0.1
2016-Sep-26 00:31N 37°48' W 122°21'0 0.1
2016-Sep-25 21:31N 37°48' W 122°22'0 0.0
2016-Sep-25 17:28N 37°48' W 122°21'0 0.1
2016-Sep-25 16:31N 37°47' W 122°21'0 0.1
2016-Sep-25 15:33N 37°47' W 122°21'1 0.8
2016-Sep-25 14:33N 37°47' W 122°22'20 9.8
2016-Sep-25 12:33N 37°41' W 122°46'9 8.9
2016-Sep-25 11:33N 37°36' W 122°55'1010.5
2016-Sep-25 10:33N 37°31' W 123°07'1111.2
2016-Sep-25 09:33N 37°35' W 123°20'2210.9
2016-Sep-25 07:33N 37°42' W 123°46'3912.9
2016-Sep-25 04:33N 37°55' W 124°32'5213.0
2016-Sep-25 00:33N 38°13' W 125°34'2613.1
2016-Sep-24 22:33N 38°21' W 126°06'57611.5
2016-Sep-22 20:33N 47°57' W 125°31'79 9.9
2016-Sep-22 12:33N 48°16' W 123°36'66 8.2
2016-Sep-22 04:29N 49°18' W 123°02'0 0.0
2016-Sep-22 03:29N 49°18' W 123°02'0 0.0
2016-Sep-22 00:32N 49°18' W 123°02'0 0.0
2016-Sep-21 23:32N 49°18' W 123°02'0 0.0
2016-Sep-21 22:29N 49°18' W 123°02'0 0.0
2016-Sep-21 19:32N 49°18' W 123°02'0 0.0
2016-Sep-21 16:29N 49°18' W 123°02'0 0.0
2016-Sep-21 09:32N 49°18' W 123°02'0 0.0
2016-Sep-21 08:32N 49°18' W 123°02'0 0.0
2016-Sep-21 05:32N 49°18' W 123°02'5 2.5
2016-Sep-21 03:33N 49°19' W 123°09'1010.1
2016-Sep-21 02:33N 49°12' W 123°19'63 7.0
2016-Sep-20 17:33N 48°15' W 124°00'3010.2
2016-Sep-20 14:33N 48°28' W 124°42'1110.9
2016-Sep-20 13:33N 48°28' W 124°59'28 9.3
2016-Sep-20 10:33N 48°29' W 125°41'18 8.9
2016-Sep-20 08:33N 48°29' W 126°07'1210.9
2016-Sep-20 07:30N 48°29' W 126°25'  

Dump ship's entire track history